sensor_id;sensor_type;location;lat;lon;timestamp;pressure;altitude;pressure_sealevel;temperature;humidity
29359;BME280;16347;53.232;6.556;2023-12-04T00:01:53;101461.66;;;4.28;65.26
29359;BME280;16347;53.232;6.556;2023-12-04T00:04:21;101457.03;;;4.30;65.33
29359;BME280;16347;53.232;6.556;2023-12-04T00:06:49;101454.16;;;4.06;65.39
29359;BME280;16347;53.232;6.556;2023-12-04T00:09:19;101451.53;;;4.19;65.68
29359;BME280;16347;53.232;6.556;2023-12-04T00:11:48;101445.94;;;4.22;65.41
29359;BME280;16347;53.232;6.556;2023-12-04T00:14:16;101444.38;;;4.05;65.63
29359;BME280;16347;53.232;6.556;2023-12-04T00:16:44;101434.16;;;4.10;66.10
29359;BME280;16347;53.232;6.556;2023-12-04T00:19:12;101441.38;;;4.10;66.29
29359;BME280;16347;53.232;6.556;2023-12-04T00:21:40;101429.13;;;4.19;66.00
29359;BME280;16347;53.232;6.556;2023-12-04T00:24:08;101425.13;;;4.11;65.67
29359;BME280;16347;53.232;6.556;2023-12-04T00:26:36;101409.66;;;4.15;65.82
29359;BME280;16347;53.232;6.556;2023-12-04T00:29:05;101412.13;;;4.18;65.43
29359;BME280;16347;53.232;6.556;2023-12-04T00:31:33;101410.59;;;4.14;65.88
29359;BME280;16347;53.232;6.556;2023-12-04T00:34:02;101410.38;;;4.17;65.70
29359;BME280;16347;53.232;6.556;2023-12-04T00:36:30;101407.38;;;4.09;65.66
29359;BME280;16347;53.232;6.556;2023-12-04T00:38:58;101400.28;;;4.21;66.13
29359;BME280;16347;53.232;6.556;2023-12-04T00:41:25;101404.56;;;4.10;65.89
29359;BME280;16347;53.232;6.556;2023-12-04T00:43:53;101403.69;;;4.10;66.17
29359;BME280;16347;53.232;6.556;2023-12-04T00:46:22;101396.50;;;4.10;66.36
29359;BME280;16347;53.232;6.556;2023-12-04T00:48:50;101398.44;;;4.08;66.25
29359;BME280;16347;53.232;6.556;2023-12-04T00:51:18;101398.53;;;4.07;66.19
29359;BME280;16347;53.232;6.556;2023-12-04T00:53:46;101395.06;;;3.92;66.70
29359;BME280;16347;53.232;6.556;2023-12-04T00:56:14;101401.94;;;3.96;67.03
29359;BME280;16347;53.232;6.556;2023-12-04T00:58:42;101392.59;;;4.02;66.87
29359;BME280;16347;53.232;6.556;2023-12-04T01:01:10;101388.19;;;4.01;66.75
29359;BME280;16347;53.232;6.556;2023-12-04T01:03:39;101385.94;;;4.07;66.77
29359;BME280;16347;53.232;6.556;2023-12-04T01:06:07;101384.34;;;4.18;67.26
29359;BME280;16347;53.232;6.556;2023-12-04T01:08:35;101379.31;;;4.26;66.77
29359;BME280;16347;53.232;6.556;2023-12-04T01:11:03;101378.44;;;4.25;66.46
29359;BME280;16347;53.232;6.556;2023-12-04T01:13:31;101379.97;;;4.29;65.65
29359;BME280;16347;53.232;6.556;2023-12-04T01:15:59;101373.47;;;4.19;66.08
29359;BME280;16347;53.232;6.556;2023-12-04T01:18:27;101364.63;;;4.17;66.09
29359;BME280;16347;53.232;6.556;2023-12-04T01:20:57;101373.16;;;4.24;66.07
29359;BME280;16347;53.232;6.556;2023-12-04T01:23:25;101372.28;;;4.10;66.22
29359;BME280;16347;53.232;6.556;2023-12-04T01:25:52;101365.50;;;4.05;66.57
29359;BME280;16347;53.232;6.556;2023-12-04T01:28:20;101359.75;;;3.97;67.03
29359;BME280;16347;53.232;6.556;2023-12-04T01:30:48;101353.78;;;4.06;66.94
29359;BME280;16347;53.232;6.556;2023-12-04T01:33:17;101366.47;;;4.17;66.67
29359;BME280;16347;53.232;6.556;2023-12-04T01:35:45;101360.53;;;4.11;66.55
29359;BME280;16347;53.232;6.556;2023-12-04T01:38:14;101356.34;;;4.07;66.79
29359;BME280;16347;53.232;6.556;2023-12-04T01:40:42;101354.88;;;4.16;66.20
29359;BME280;16347;53.232;6.556;2023-12-04T01:43:09;101350.13;;;4.20;66.38
29359;BME280;16347;53.232;6.556;2023-12-04T01:45:37;101357.84;;;4.11;66.48
29359;BME280;16347;53.232;6.556;2023-12-04T01:48:06;101347.31;;;4.08;66.66
29359;BME280;16347;53.232;6.556;2023-12-04T01:50:35;101349.78;;;4.11;67.08
29359;BME280;16347;53.232;6.556;2023-12-04T01:53:04;101353.25;;;4.26;66.99
29359;BME280;16347;53.232;6.556;2023-12-04T01:55:36;101344.97;;;4.29;66.58
29359;BME280;16347;53.232;6.556;2023-12-04T01:58:05;101332.16;;;4.33;66.55
29359;BME280;16347;53.232;6.556;2023-12-04T02:00:33;101330.44;;;4.19;66.43
29359;BME280;16347;53.232;6.556;2023-12-04T02:03:01;101333.75;;;4.23;66.70
29359;BME280;16347;53.232;6.556;2023-12-04T02:05:31;101330.84;;;4.26;66.28
29359;BME280;16347;53.232;6.556;2023-12-04T02:07:59;101323.84;;;4.23;66.25
29359;BME280;16347;53.232;6.556;2023-12-04T02:10:27;101316.75;;;4.09;66.28
29359;BME280;16347;53.232;6.556;2023-12-04T02:12:57;101321.25;;;4.09;66.68
29359;BME280;16347;53.232;6.556;2023-12-04T02:15:24;101321.25;;;4.09;66.38
29359;BME280;16347;53.232;6.556;2023-12-04T02:17:54;101320.72;;;4.04;66.81
29359;BME280;16347;53.232;6.556;2023-12-04T02:20:31;101316.53;;;4.12;67.15
29359;BME280;16347;53.232;6.556;2023-12-04T02:23:00;101312.19;;;4.10;66.92
29359;BME280;16347;53.232;6.556;2023-12-04T02:25:30;101307.91;;;4.07;66.99
29359;BME280;16347;53.232;6.556;2023-12-04T02:28:05;101303.81;;;4.02;67.28
29359;BME280;16347;53.232;6.556;2023-12-04T02:30:34;101302.53;;;4.07;67.09
29359;BME280;16347;53.232;6.556;2023-12-04T02:33:05;101308.03;;;4.06;67.01
29359;BME280;16347;53.232;6.556;2023-12-04T02:35:35;101294.88;;;3.89;67.42
29359;BME280;16347;53.232;6.556;2023-12-04T02:38:04;101295.09;;;3.98;67.74
29359;BME280;16347;53.232;6.556;2023-12-04T02:40:33;101293.78;;;3.91;67.72
29359;BME280;16347;53.232;6.556;2023-12-04T02:43:02;101286.59;;;4.04;67.67
29359;BME280;16347;53.232;6.556;2023-12-04T02:45:30;101281.53;;;4.00;67.27
29359;BME280;16347;53.232;6.556;2023-12-04T02:47:58;101281.78;;;4.09;67.58
29359;BME280;16347;53.232;6.556;2023-12-04T02:50:26;101277.88;;;4.01;67.75
29359;BME280;16347;53.232;6.556;2023-12-04T02:52:53;101276.69;;;4.05;67.46
29359;BME280;16347;53.232;6.556;2023-12-04T02:55:21;101274.22;;;4.02;67.45
29359;BME280;16347;53.232;6.556;2023-12-04T02:57:51;101276.78;;;4.03;67.63
29359;BME280;16347;53.232;6.556;2023-12-04T03:00:19;101272.28;;;4.17;67.49
29359;BME280;16347;53.232;6.556;2023-12-04T03:02:46;101274.13;;;4.16;67.51
29359;BME280;16347;53.232;6.556;2023-12-04T03:05:14;101260.00;;;4.25;67.64
29359;BME280;16347;53.232;6.556;2023-12-04T03:07:42;101259.06;;;4.26;67.36
29359;BME280;16347;53.232;6.556;2023-12-04T03:10:10;101256.00;;;4.31;67.13
29359;BME280;16347;53.232;6.556;2023-12-04T03:12:38;101263.13;;;4.32;66.68
29359;BME280;16347;53.232;6.556;2023-12-04T03:15:08;101248.59;;;4.34;66.71
29359;BME280;16347;53.232;6.556;2023-12-04T03:17:37;101243.84;;;4.38;66.86
29359;BME280;16347;53.232;6.556;2023-12-04T03:20:05;101243.53;;;4.42;67.08
29359;BME280;16347;53.232;6.556;2023-12-04T03:22:36;101241.69;;;4.43;66.73
29359;BME280;16347;53.232;6.556;2023-12-04T03:25:05;101240.28;;;4.50;66.49
29359;BME280;16347;53.232;6.556;2023-12-04T03:27:33;101236.19;;;4.44;65.57
29359;BME280;16347;53.232;6.556;2023-12-04T03:30:01;101230.81;;;4.44;66.28
29359;BME280;16347;53.232;6.556;2023-12-04T03:32:31;101235.13;;;4.34;66.49
29359;BME280;16347;53.232;6.556;2023-12-04T03:34:58;101238.69;;;4.35;66.17
29359;BME280;16347;53.232;6.556;2023-12-04T03:37:27;101236.31;;;4.18;66.42
29359;BME280;16347;53.232;6.556;2023-12-04T03:39:56;101232.44;;;4.22;66.64
29359;BME280;16347;53.232;6.556;2023-12-04T03:42:24;101234.28;;;4.21;66.86
29359;BME280;16347;53.232;6.556;2023-12-04T03:44:52;101217.69;;;4.27;66.87
29359;BME280;16347;53.232;6.556;2023-12-04T03:47:20;101217.47;;;4.30;66.48
29359;BME280;16347;53.232;6.556;2023-12-04T03:49:51;101209.94;;;4.35;66.58
29359;BME280;16347;53.232;6.556;2023-12-04T03:52:19;101207.03;;;4.26;66.46
29359;BME280;16347;53.232;6.556;2023-12-04T03:54:47;101204.34;;;4.26;66.92
29359;BME280;16347;53.232;6.556;2023-12-04T03:57:14;101205.50;;;4.34;66.78
29359;BME280;16347;53.232;6.556;2023-12-04T03:59:43;101208.56;;;4.30;66.78
29359;BME280;16347;53.232;6.556;2023-12-04T04:02:11;101195.84;;;4.32;66.60
29359;BME280;16347;53.232;6.556;2023-12-04T04:04:39;101203.25;;;4.28;66.43
29359;BME280;16347;53.232;6.556;2023-12-04T04:07:09;101193.72;;;4.11;67.29
29359;BME280;16347;53.232;6.556;2023-12-04T04:09:36;101188.09;;;4.14;67.62
29359;BME280;16347;53.232;6.556;2023-12-04T04:12:05;101184.09;;;4.20;67.47
29359;BME280;16347;53.232;6.556;2023-12-04T04:14:33;101179.06;;;4.16;67.27
29359;BME280;16347;53.232;6.556;2023-12-04T04:17:01;101180.59;;;4.20;67.58
29359;BME280;16347;53.232;6.556;2023-12-04T04:19:28;101176.91;;;4.21;67.58
29359;BME280;16347;53.232;6.556;2023-12-04T04:21:57;101189.38;;;4.34;67.46
29359;BME280;16347;53.232;6.556;2023-12-04T04:24:26;101194.97;;;4.31;67.14
29359;BME280;16347;53.232;6.556;2023-12-04T04:26:54;101196.16;;;4.27;66.90
29359;BME280;16347;53.232;6.556;2023-12-04T04:29:21;101194.88;;;4.20;67.10
29359;BME280;16347;53.232;6.556;2023-12-04T04:31:49;101192.94;;;4.22;67.48
29359;BME280;16347;53.232;6.556;2023-12-04T04:34:19;101177.00;;;4.32;67.05
29359;BME280;16347;53.232;6.556;2023-12-04T04:36:47;101181.31;;;4.22;67.10
29359;BME280;16347;53.232;6.556;2023-12-04T04:39:15;101174.75;;;4.13;67.36
29359;BME280;16347;53.232;6.556;2023-12-04T04:41:45;101174.44;;;4.05;67.55
29359;BME280;16347;53.232;6.556;2023-12-04T04:44:13;101182.50;;;4.18;67.73
29359;BME280;16347;53.232;6.556;2023-12-04T04:46:40;101175.28;;;4.18;67.87
29359;BME280;16347;53.232;6.556;2023-12-04T04:49:08;101165.69;;;4.27;67.72
29359;BME280;16347;53.232;6.556;2023-12-04T04:51:36;101159.75;;;4.34;67.25
29359;BME280;16347;53.232;6.556;2023-12-04T04:54:04;101160.44;;;4.25;67.08
29359;BME280;16347;53.232;6.556;2023-12-04T04:56:32;101153.50;;;4.34;67.23
29359;BME280;16347;53.232;6.556;2023-12-04T04:59:01;101158.47;;;4.27;67.26
29359;BME280;16347;53.232;6.556;2023-12-04T05:01:29;101147.06;;;4.24;67.47
29359;BME280;16347;53.232;6.556;2023-12-04T05:03:57;101137.72;;;4.29;67.57
29359;BME280;16347;53.232;6.556;2023-12-04T05:06:25;101140.09;;;4.21;67.28
29359;BME280;16347;53.232;6.556;2023-12-04T05:08:53;101147.84;;;4.26;67.60
29359;BME280;16347;53.232;6.556;2023-12-04T05:11:21;101152.78;;;4.32;67.25
29359;BME280;16347;53.232;6.556;2023-12-04T05:13:49;101156.97;;;4.23;66.90
29359;BME280;16347;53.232;6.556;2023-12-04T05:16:18;101150.84;;;4.21;67.35
29359;BME280;16347;53.232;6.556;2023-12-04T05:18:46;101150.75;;;4.23;67.00
29359;BME280;16347;53.232;6.556;2023-12-04T05:21:14;101135.34;;;4.25;67.50
29359;BME280;16347;53.232;6.556;2023-12-04T05:23:41;101131.22;;;4.32;67.02
29359;BME280;16347;53.232;6.556;2023-12-04T05:26:09;101126.00;;;4.18;67.43
29359;BME280;16347;53.232;6.556;2023-12-04T05:28:37;101129.72;;;4.28;67.44
29359;BME280;16347;53.232;6.556;2023-12-04T05:31:08;101132.31;;;4.29;66.95
29359;BME280;16347;53.232;6.556;2023-12-04T05:33:37;101124.34;;;4.28;66.92
29359;BME280;16347;53.232;6.556;2023-12-04T05:36:10;101124.25;;;4.29;66.92
29359;BME280;16347;53.232;6.556;2023-12-04T05:38:38;101127.69;;;4.31;66.96
29359;BME280;16347;53.232;6.556;2023-12-04T05:41:06;101118.19;;;4.38;66.85
29359;BME280;16347;53.232;6.556;2023-12-04T05:43:34;101112.25;;;4.33;66.44
29359;BME280;16347;53.232;6.556;2023-12-04T05:46:02;101115.94;;;4.32;66.52
29359;BME280;16347;53.232;6.556;2023-12-04T05:48:30;101119.91;;;4.39;66.76
29359;BME280;16347;53.232;6.556;2023-12-04T05:50:59;101111.72;;;4.41;66.49
29359;BME280;16347;53.232;6.556;2023-12-04T05:53:27;101109.38;;;4.36;66.17
29359;BME280;16347;53.232;6.556;2023-12-04T05:55:55;101120.00;;;4.38;66.08
29359;BME280;16347;53.232;6.556;2023-12-04T05:58:23;101108.84;;;4.31;66.19
29359;BME280;16347;53.232;6.556;2023-12-04T06:00:51;101100.13;;;4.28;66.19
29359;BME280;16347;53.232;6.556;2023-12-04T06:03:19;101104.13;;;4.22;66.23
29359;BME280;16347;53.232;6.556;2023-12-04T06:05:47;101100.44;;;4.23;66.38
29359;BME280;16347;53.232;6.556;2023-12-04T06:08:16;101100.59;;;4.22;66.34
29359;BME280;16347;53.232;6.556;2023-12-04T06:10:45;101101.25;;;4.12;66.41
29359;BME280;16347;53.232;6.556;2023-12-04T06:13:13;101092.50;;;4.22;66.44
29359;BME280;16347;53.232;6.556;2023-12-04T06:15:41;101090.69;;;4.22;66.57
29359;BME280;16347;53.232;6.556;2023-12-04T06:18:09;101087.00;;;4.23;66.23
29359;BME280;16347;53.232;6.556;2023-12-04T06:20:37;101083.09;;;4.27;66.37
29359;BME280;16347;53.232;6.556;2023-12-04T06:23:05;101094.00;;;4.26;66.25
29359;BME280;16347;53.232;6.556;2023-12-04T06:25:35;101075.34;;;4.35;65.90
29359;BME280;16347;53.232;6.556;2023-12-04T06:28:05;101082.47;;;4.24;66.46
29359;BME280;16347;53.232;6.556;2023-12-04T06:30:33;101082.06;;;4.30;66.74
29359;BME280;16347;53.232;6.556;2023-12-04T06:33:02;101077.53;;;4.18;66.42
29359;BME280;16347;53.232;6.556;2023-12-04T06:35:30;101074.75;;;4.19;66.18
29359;BME280;16347;53.232;6.556;2023-12-04T06:38:03;101063.94;;;4.32;66.33
29359;BME280;16347;53.232;6.556;2023-12-04T06:40:35;101059.88;;;4.26;66.26
29359;BME280;16347;53.232;6.556;2023-12-04T06:43:04;101059.19;;;4.35;65.88
29359;BME280;16347;53.232;6.556;2023-12-04T06:45:32;101059.03;;;4.26;65.79
29359;BME280;16347;53.232;6.556;2023-12-04T06:48:00;101052.63;;;4.39;65.93
29359;BME280;16347;53.232;6.556;2023-12-04T06:50:28;101055.94;;;4.43;65.49
29359;BME280;16347;53.232;6.556;2023-12-04T06:52:56;101057.75;;;4.42;65.25
29359;BME280;16347;53.232;6.556;2023-12-04T06:55:24;101041.38;;;4.45;65.39
29359;BME280;16347;53.232;6.556;2023-12-04T06:57:54;101046.53;;;4.48;65.10
29359;BME280;16347;53.232;6.556;2023-12-04T07:00:22;101047.88;;;4.30;64.87
29359;BME280;16347;53.232;6.556;2023-12-04T07:02:50;101042.09;;;4.24;65.19
29359;BME280;16347;53.232;6.556;2023-12-04T07:05:19;101039.25;;;4.14;65.25
29359;BME280;16347;53.232;6.556;2023-12-04T07:07:48;101046.28;;;4.04;65.86
29359;BME280;16347;53.232;6.556;2023-12-04T07:10:15;101041.06;;;4.13;65.88
29359;BME280;16347;53.232;6.556;2023-12-04T07:12:44;101040.34;;;4.11;66.01
29359;BME280;16347;53.232;6.556;2023-12-04T07:15:16;101042.56;;;4.18;65.63
29359;BME280;16347;53.232;6.556;2023-12-04T07:17:44;101036.94;;;4.21;65.48
29359;BME280;16347;53.232;6.556;2023-12-04T07:20:12;101029.41;;;4.26;65.23
29359;BME280;16347;53.232;6.556;2023-12-04T07:22:41;101030.94;;;4.17;65.41
29359;BME280;16347;53.232;6.556;2023-12-04T07:25:08;101028.16;;;4.19;65.22
29359;BME280;16347;53.232;6.556;2023-12-04T07:27:36;101021.81;;;4.20;65.44
29359;BME280;16347;53.232;6.556;2023-12-04T07:30:06;101024.03;;;4.26;65.31
29359;BME280;16347;53.232;6.556;2023-12-04T07:32:35;101017.63;;;4.16;65.26
29359;BME280;16347;53.232;6.556;2023-12-04T07:35:04;101010.03;;;4.21;65.04
29359;BME280;16347;53.232;6.556;2023-12-04T07:37:33;101013.19;;;4.14;65.37
29359;BME280;16347;53.232;6.556;2023-12-04T07:40:00;101016.28;;;4.21;64.94
29359;BME280;16347;53.232;6.556;2023-12-04T07:42:30;101004.44;;;4.24;64.44
29359;BME280;16347;53.232;6.556;2023-12-04T07:44:58;101007.72;;;4.16;65.01
29359;BME280;16347;53.232;6.556;2023-12-04T07:47:26;101004.03;;;4.17;64.52
29359;BME280;16347;53.232;6.556;2023-12-04T07:49:55;101008.94;;;4.23;64.46
29359;BME280;16347;53.232;6.556;2023-12-04T07:52:23;101006.09;;;4.13;64.72
29359;BME280;16347;53.232;6.556;2023-12-04T07:54:51;101004.88;;;4.18;65.00
29359;BME280;16347;53.232;6.556;2023-12-04T07:57:19;100997.56;;;4.20;64.46
29359;BME280;16347;53.232;6.556;2023-12-04T07:59:47;101002.25;;;4.29;64.66
29359;BME280;16347;53.232;6.556;2023-12-04T08:02:18;100993.97;;;4.32;64.01
29359;BME280;16347;53.232;6.556;2023-12-04T08:04:45;101004.09;;;4.28;63.80
29359;BME280;16347;53.232;6.556;2023-12-04T08:07:15;101001.81;;;4.35;64.05
29359;BME280;16347;53.232;6.556;2023-12-04T08:09:43;101000.13;;;4.45;63.68
29359;BME280;16347;53.232;6.556;2023-12-04T08:12:10;101001.47;;;4.39;63.64
29359;BME280;16347;53.232;6.556;2023-12-04T08:14:38;100996.03;;;4.28;63.25
29359;BME280;16347;53.232;6.556;2023-12-04T08:17:06;100995.09;;;4.40;63.03
29359;BME280;16347;53.232;6.556;2023-12-04T08:19:34;100995.22;;;4.39;63.07
29359;BME280;16347;53.232;6.556;2023-12-04T08:22:04;100990.56;;;4.41;63.34
29359;BME280;16347;53.232;6.556;2023-12-04T08:24:33;100988.88;;;4.40;63.11
29359;BME280;16347;53.232;6.556;2023-12-04T08:27:01;100987.78;;;4.53;62.91
29359;BME280;16347;53.232;6.556;2023-12-04T08:29:29;100985.16;;;4.64;63.09
29359;BME280;16347;53.232;6.556;2023-12-04T08:31:57;100979.03;;;4.62;62.47
29359;BME280;16347;53.232;6.556;2023-12-04T08:34:25;100979.91;;;4.63;62.17
29359;BME280;16347;53.232;6.556;2023-12-04T08:36:53;100975.72;;;4.59;62.20
29359;BME280;16347;53.232;6.556;2023-12-04T08:39:22;100974.47;;;4.52;62.19
29359;BME280;16347;53.232;6.556;2023-12-04T08:41:51;100973.03;;;4.59;61.83
29359;BME280;16347;53.232;6.556;2023-12-04T08:44:29;100980.47;;;4.55;61.87
29359;BME280;16347;53.232;6.556;2023-12-04T08:46:56;100980.22;;;4.58;62.07
29359;BME280;16347;53.232;6.556;2023-12-04T08:49:26;100976.69;;;4.58;62.03
29359;BME280;16347;53.232;6.556;2023-12-04T08:52:08;100976.72;;;4.69;61.73
29359;BME280;16347;53.232;6.556;2023-12-04T08:54:38;100978.50;;;4.57;61.06
29359;BME280;16347;53.232;6.556;2023-12-04T08:57:08;100981.44;;;4.54;61.40
29359;BME280;16347;53.232;6.556;2023-12-04T08:59:36;100968.59;;;4.58;61.45
29359;BME280;16347;53.232;6.556;2023-12-04T09:02:04;100968.59;;;4.58;61.29
29359;BME280;16347;53.232;6.556;2023-12-04T09:04:32;100966.06;;;4.68;61.28
29359;BME280;16347;53.232;6.556;2023-12-04T09:07:01;100965.94;;;4.69;61.18
29359;BME280;16347;53.232;6.556;2023-12-04T09:09:49;100958.34;;;4.63;60.96
29359;BME280;16347;53.232;6.556;2023-12-04T09:12:18;100965.44;;;4.64;60.74
29359;BME280;16347;53.232;6.556;2023-12-04T09:14:46;100964.56;;;4.52;60.82
29359;BME280;16347;53.232;6.556;2023-12-04T09:17:15;100956.66;;;4.38;61.00
29359;BME280;16347;53.232;6.556;2023-12-04T09:19:43;100952.41;;;4.47;61.12
29359;BME280;16347;53.232;6.556;2023-12-04T09:22:11;100959.84;;;4.43;60.68
29359;BME280;16347;53.232;6.556;2023-12-04T09:24:47;100950.34;;;4.50;60.85
29359;BME280;16347;53.232;6.556;2023-12-04T09:27:15;100951.34;;;4.60;60.83
29359;BME280;16347;53.232;6.556;2023-12-04T09:29:45;100957.34;;;4.64;60.53
29359;BME280;16347;53.232;6.556;2023-12-04T09:32:12;100955.53;;;4.64;60.35
29359;BME280;16347;53.232;6.556;2023-12-04T09:34:40;100951.09;;;4.52;60.25
29359;BME280;16347;53.232;6.556;2023-12-04T09:37:08;100950.84;;;4.55;60.41
29359;BME280;16347;53.232;6.556;2023-12-04T09:39:38;100954.16;;;4.59;60.30
29359;BME280;16347;53.232;6.556;2023-12-04T09:42:07;100953.94;;;4.62;60.25
29359;BME280;16347;53.232;6.556;2023-12-04T09:44:36;100943.16;;;4.62;59.90
29359;BME280;16347;53.232;6.556;2023-12-04T09:47:07;100945.63;;;4.65;59.85
29359;BME280;16347;53.232;6.556;2023-12-04T09:49:37;100944.41;;;4.69;59.94
29359;BME280;16347;53.232;6.556;2023-12-04T09:52:06;100943.19;;;4.73;59.67
29359;BME280;16347;53.232;6.556;2023-12-04T09:54:35;100942.81;;;4.78;59.47
29359;BME280;16347;53.232;6.556;2023-12-04T09:57:03;100949.44;;;4.85;59.41
29359;BME280;16347;53.232;6.556;2023-12-04T09:59:32;100948.59;;;4.84;59.29
29359;BME280;16347;53.232;6.556;2023-12-04T10:02:02;100945.78;;;4.86;58.82
29359;BME280;16347;53.232;6.556;2023-12-04T10:04:32;100950.19;;;4.87;58.92
29359;BME280;16347;53.232;6.556;2023-12-04T10:07:00;100946.03;;;4.94;59.17
29359;BME280;16347;53.232;6.556;2023-12-04T10:09:29;100935.50;;;4.91;59.36
29359;BME280;16347;53.232;6.556;2023-12-04T10:11:57;100934.66;;;5.01;59.18
29359;BME280;16347;53.232;6.556;2023-12-04T10:14:25;100931.59;;;4.95;59.12
29359;BME280;16347;53.232;6.556;2023-12-04T10:16:53;100935.63;;;5.11;58.87
29359;BME280;16347;53.232;6.556;2023-12-04T10:19:22;100932.69;;;5.14;59.13
29359;BME280;16347;53.232;6.556;2023-12-04T10:21:55;100933.06;;;5.21;59.16
29359;BME280;16347;53.232;6.556;2023-12-04T10:24:30;100933.44;;;5.16;58.62
29359;BME280;16347;53.232;6.556;2023-12-04T10:27:00;100940.28;;;5.21;58.50
29359;BME280;16347;53.232;6.556;2023-12-04T10:29:29;100935.38;;;5.14;58.16
29359;BME280;16347;53.232;6.556;2023-12-04T10:32:00;100918.97;;;5.17;58.28
29359;BME280;16347;53.232;6.556;2023-12-04T10:34:29;100924.38;;;5.17;58.14
29359;BME280;16347;53.232;6.556;2023-12-04T10:37:02;100926.34;;;5.15;58.02
29359;BME280;16347;53.232;6.556;2023-12-04T10:39:31;100915.81;;;5.12;58.13
29359;BME280;16347;53.232;6.556;2023-12-04T10:42:00;100905.75;;;5.03;57.62
29359;BME280;16347;53.232;6.556;2023-12-04T10:44:30;100907.97;;;5.09;57.54
29359;BME280;16347;53.232;6.556;2023-12-04T10:47:00;100895.47;;;5.20;58.07
29359;BME280;16347;53.232;6.556;2023-12-04T10:49:29;100883.81;;;5.30;58.23
29359;BME280;16347;53.232;6.556;2023-12-04T10:51:57;100883.56;;;5.33;57.86
29359;BME280;16347;53.232;6.556;2023-12-04T10:54:27;100895.22;;;5.34;57.34
29359;BME280;16347;53.232;6.556;2023-12-04T10:57:00;100888.56;;;5.38;57.38
29359;BME280;16347;53.232;6.556;2023-12-04T10:59:32;100880.72;;;5.35;57.59
29359;BME280;16347;53.232;6.556;2023-12-04T11:02:04;100873.59;;;5.56;56.81
29359;BME280;16347;53.232;6.556;2023-12-04T11:04:36;100876.19;;;5.46;57.11
29359;BME280;16347;53.232;6.556;2023-12-04T11:07:06;100866.88;;;5.50;57.40
29359;BME280;16347;53.232;6.556;2023-12-04T11:09:37;100862.09;;;5.54;57.30
29359;BME280;16347;53.232;6.556;2023-12-04T11:12:08;100868.81;;;5.48;57.14
29359;BME280;16347;53.232;6.556;2023-12-04T11:14:40;100864.41;;;5.47;57.13
29359;BME280;16347;53.232;6.556;2023-12-04T11:17:13;100849.47;;;5.43;56.56
29359;BME280;16347;53.232;6.556;2023-12-04T11:19:50;100854.47;;;5.48;56.40
29359;BME280;16347;53.232;6.556;2023-12-04T11:22:21;100847.16;;;5.50;56.64
29359;BME280;16347;53.232;6.556;2023-12-04T11:24:50;100838.03;;;5.51;56.56
29359;BME280;16347;53.232;6.556;2023-12-04T11:27:20;100843.84;;;5.46;56.14
29359;BME280;16347;53.232;6.556;2023-12-04T11:29:49;100843.09;;;5.44;56.15
29359;BME280;16347;53.232;6.556;2023-12-04T11:32:18;100840.75;;;5.51;56.07
29359;BME280;16347;53.232;6.556;2023-12-04T11:34:50;100830.19;;;5.59;56.26
29359;BME280;16347;53.232;6.556;2023-12-04T11:37:19;100821.47;;;5.66;55.89
29359;BME280;16347;53.232;6.556;2023-12-04T11:39:47;100824.78;;;5.70;55.90
29359;BME280;16347;53.232;6.556;2023-12-04T11:42:21;100828.69;;;5.66;55.52
29359;BME280;16347;53.232;6.556;2023-12-04T11:44:56;100819.81;;;5.75;55.79
29359;BME280;16347;53.232;6.556;2023-12-04T11:47:27;100808.91;;;5.77;55.04
29359;BME280;16347;53.232;6.556;2023-12-04T11:49:57;100815.63;;;5.82;55.42
29359;BME280;16347;53.232;6.556;2023-12-04T11:52:32;100808.16;;;5.86;55.11
29359;BME280;16347;53.232;6.556;2023-12-04T11:55:03;100814.44;;;5.86;55.49
29359;BME280;16347;53.232;6.556;2023-12-04T11:57:35;100815.03;;;5.90;55.02
29359;BME280;16347;53.232;6.556;2023-12-04T12:00:12;100814.06;;;5.91;55.21
29359;BME280;16347;53.232;6.556;2023-12-04T12:02:47;100809.47;;;5.91;54.63
29359;BME280;16347;53.232;6.556;2023-12-04T12:05:35;100810.94;;;5.95;55.00
29359;BME280;16347;53.232;6.556;2023-12-04T12:08:06;100805.53;;;5.95;54.79
29359;BME280;16347;53.232;6.556;2023-12-04T12:10:34;100801.97;;;5.95;54.50
29359;BME280;16347;53.232;6.556;2023-12-04T12:13:03;100801.97;;;5.95;54.83
29359;BME280;16347;53.232;6.556;2023-12-04T12:15:32;100795.72;;;5.94;54.42
29359;BME280;16347;53.232;6.556;2023-12-04T12:18:01;100800.16;;;5.95;54.55
29359;BME280;16347;53.232;6.556;2023-12-04T12:20:29;100790.94;;;5.98;54.58
29359;BME280;16347;53.232;6.556;2023-12-04T12:22:57;100788.63;;;5.93;55.24
29359;BME280;16347;53.232;6.556;2023-12-04T12:25:25;100783.09;;;5.95;54.95
29359;BME280;16347;53.232;6.556;2023-12-04T12:27:54;100773.75;;;5.99;54.92
29359;BME280;16347;53.232;6.556;2023-12-04T12:30:23;100772.03;;;5.98;54.68
29359;BME280;16347;53.232;6.556;2023-12-04T12:32:51;100776.06;;;6.03;54.87
29359;BME280;16347;53.232;6.556;2023-12-04T12:35:20;100784.75;;;6.07;54.40
29359;BME280;16347;53.232;6.556;2023-12-04T12:37:48;100776.94;;;6.04;54.71
29359;BME280;16347;53.232;6.556;2023-12-04T12:40:17;100776.34;;;6.00;53.65
29359;BME280;16347;53.232;6.556;2023-12-04T12:42:45;100767.06;;;5.93;53.95
29359;BME280;16347;53.232;6.556;2023-12-04T12:45:14;100768.03;;;5.92;54.21
29359;BME280;16347;53.232;6.556;2023-12-04T12:47:43;100762.91;;;5.89;54.03
29359;BME280;16347;53.232;6.556;2023-12-04T12:50:11;100756.63;;;5.89;54.42
29359;BME280;16347;53.232;6.556;2023-12-04T12:52:42;100758.25;;;5.80;54.25
29359;BME280;16347;53.232;6.556;2023-12-04T12:55:10;100750.44;;;5.77;53.97
29359;BME280;16347;53.232;6.556;2023-12-04T12:57:38;100753.97;;;5.78;53.92
29359;BME280;16347;53.232;6.556;2023-12-04T13:00:08;100739.91;;;5.74;54.10
29359;BME280;16347;53.232;6.556;2023-12-04T13:02:36;100735.34;;;5.75;54.12
29359;BME280;16347;53.232;6.556;2023-12-04T13:05:06;100730.94;;;5.74;54.21
29359;BME280;16347;53.232;6.556;2023-12-04T13:07:36;100729.59;;;5.68;54.10
29359;BME280;16347;53.232;6.556;2023-12-04T13:10:04;100719.22;;;5.63;54.00